KGRF/GRF METAR and TAF weather

Enter ICAO airport designator
Station Type Date Time Source
KGRF METAR 2021/08/05 04:56 UTC NOAA

KGRF 050456Z 36004KT 10SM CLR 23/12 A2991 RMK SLPNO WND DATA ESTMD ALSTG ESTMD


Station Type Date Time Source
KGRF Decoded METAR 2021/08/05 04:56 UTC NOAA

Fort Lewis / Gray U. S. Army Airfield, WA, United States (KGRF) 47-07N 122-33W 87M
Aug 05, 2021 - 12:56 AM EDT / 2021.08.05 0456 UTC
Wind: from the N (360 degrees) at 5 MPH (4 KT):0
Visibility: 10 mile(s):0
Sky conditions: clear
Temperature: 73 F (23 C)
Dew Point: 53 F (12 C)
Relative Humidity: 49%
Pressure (altimeter): 29.91 in. Hg (1012 hPa)
ob: KGRF 050456Z 36004KT 10SM CLR 23/12 A2991 RMK SLPNO WND DATA ESTMD ALSTG ESTMD
cycle: 5

Station Type Date Time Source
KGRF TAF 2021/08/05 05:04 UTC NOAA

TAF KGRF 050500Z 0505/0611 VRB06KT 9999 SCT200 QNH2992INS
BECMG 0519/0520 24012G18KT 9999 FEW040 BKN200 QNH2990INS
BECMG 0603/0604 20009KT 9999 OVC015 QNH2998INS
BECMG 0608/0609 19007KT 8000 -SHRA BR OVC010 QNH3000INS TX30/0523Z TN15/0513Z

Example: see airport list